createdAt,value
2023-03-08T00:02:11.383Z,2.90
2023-03-08T00:07:17.498Z,3.90
2023-03-08T00:12:20.102Z,3.77
2023-03-08T00:17:24.380Z,4.00
2023-03-08T00:22:28.417Z,2.93
2023-03-08T00:27:30.109Z,3.93
2023-03-08T00:32:34.362Z,3.30
2023-03-08T00:37:36.061Z,3.57
2023-03-08T00:42:37.787Z,3.97
2023-03-08T00:47:42.030Z,4.10
2023-03-08T00:52:43.684Z,4.60
2023-03-08T00:57:47.587Z,5.20
2023-03-08T01:02:51.937Z,4.23
2023-03-08T01:07:55.917Z,3.93
2023-03-08T01:13:00.218Z,4.60
2023-03-08T01:18:01.913Z,3.97
2023-03-08T01:23:04.612Z,4.67
2023-03-08T01:28:10.906Z,4.33
2023-03-08T01:33:12.573Z,4.00
2023-03-08T01:38:14.398Z,4.33
2023-03-08T01:43:33.286Z,3.83
2023-03-08T01:48:48.657Z,3.13
2023-03-08T01:53:53.837Z,3.37
2023-03-08T01:58:59.093Z,3.27
2023-03-08T02:04:04.117Z,3.60
2023-03-08T02:09:12.776Z,4.03
2023-03-08T02:14:16.513Z,3.27
2023-03-08T02:19:47.662Z,4.30
2023-03-08T02:24:51.454Z,3.50
2023-03-08T02:29:53.174Z,3.40
2023-03-08T02:34:54.824Z,4.57
2023-03-08T02:39:56.466Z,5.40
2023-03-08T02:44:58.215Z,5.60
2023-03-08T02:50:02.461Z,5.30
2023-03-08T02:55:09.596Z,4.83
2023-03-08T03:00:14.272Z,4.27
2023-03-08T03:05:16.070Z,4.70
2023-03-08T03:10:18.182Z,4.70
2023-03-08T03:15:24.885Z,4.13
2023-03-08T03:20:33.657Z,3.80
2023-03-08T03:25:40.722Z,3.93
2023-03-08T03:30:46.488Z,3.80
2023-03-08T03:35:58.188Z,4.63
2023-03-08T03:41:07.329Z,4.30
2023-03-08T03:46:12.558Z,5.07
2023-03-08T03:51:21.004Z,3.47
2023-03-08T03:56:30.269Z,4.77
2023-03-08T04:01:35.214Z,4.40
2023-03-08T04:06:49.144Z,4.07
2023-03-08T04:11:57.015Z,4.20
2023-03-08T04:17:01.424Z,3.90
2023-03-08T04:22:11.993Z,4.10
2023-03-08T04:27:20.145Z,4.13
2023-03-08T04:32:22.141Z,3.93
2023-03-08T04:37:31.048Z,3.83
2023-03-08T04:42:41.976Z,4.83
2023-03-08T04:47:45.596Z,4.90
2023-03-08T04:52:48.454Z,4.77
2023-03-08T04:57:54.998Z,4.90
2023-03-08T05:03:00.103Z,5.60
2023-03-08T05:08:05.395Z,4.87
2023-03-08T05:13:09.586Z,5.77
2023-03-08T05:18:14.582Z,5.10
2023-03-08T05:23:16.545Z,6.20
2023-03-08T05:28:20.097Z,5.47
2023-03-08T05:33:24.186Z,5.23
2023-03-08T05:38:32.419Z,5.83
2023-03-08T05:43:35.239Z,6.93
2023-03-08T05:48:39.762Z,6.70
2023-03-08T05:53:42.457Z,6.70
2023-03-08T05:58:48.579Z,6.40
2023-03-08T06:03:55.508Z,6.20
2023-03-08T06:08:58.887Z,7.63
2023-03-08T06:14:01.457Z,6.30
2023-03-08T06:19:08.061Z,6.10
2023-03-08T06:24:11.772Z,5.90
2023-03-08T06:29:16.191Z,6.10
2023-03-08T06:34:20.385Z,5.97
2023-03-08T06:39:30.907Z,5.73
2023-03-08T06:44:34.827Z,7.75
2023-03-08T06:49:38.878Z,6.07
2023-03-08T06:54:43.486Z,6.10
2023-03-08T06:59:45.253Z,6.20
2023-03-08T07:04:49.285Z,7.40
2023-03-08T07:09:51.328Z,6.13
2023-03-08T07:14:55.171Z,6.03
2023-03-08T07:19:56.999Z,5.30
2023-03-08T07:25:01.214Z,5.90
2023-03-08T07:30:06.124Z,6.37
2023-03-08T07:35:11.663Z,6.60
2023-03-08T07:40:16.258Z,6.10
2023-03-08T07:45:20.401Z,5.50
2023-03-08T07:50:22.368Z,4.63
2023-03-08T07:55:27.614Z,4.77
2023-03-08T08:00:29.450Z,4.77
2023-03-08T08:05:34.700Z,5.00
2023-03-08T08:10:36.493Z,4.63
2023-03-08T08:15:40.749Z,4.20
2023-03-08T08:20:45.036Z,4.70
2023-03-08T08:25:47.760Z,4.33
2023-03-08T08:31:02.196Z,4.80
2023-03-08T08:36:09.513Z,4.87
2023-03-08T08:41:11.332Z,5.40
2023-03-08T08:46:13.694Z,4.70
2023-03-08T08:51:15.511Z,5.30
2023-03-08T08:56:26.729Z,6.20
2023-03-08T09:01:32.152Z,5.60
2023-03-08T09:06:33.810Z,6.70
2023-03-08T09:11:48.475Z,6.03
2023-03-08T09:16:55.328Z,5.87
2023-03-08T09:21:57.021Z,5.80
2023-03-08T09:27:01.021Z,6.57
2023-03-08T09:32:06.094Z,6.50
2023-03-08T09:37:08.362Z,6.23
2023-03-08T09:42:32.657Z,5.73
2023-03-08T09:47:49.242Z,5.43
2023-03-08T09:53:09.629Z,5.47
2023-03-08T09:58:25.751Z,5.40
2023-03-08T10:03:46.485Z,5.50
2023-03-08T10:09:02.191Z,5.20
2023-03-08T10:14:17.733Z,5.43
2023-03-08T10:19:29.048Z,5.70
2023-03-08T10:24:45.253Z,5.97
2023-03-08T10:29:55.440Z,5.43
2023-03-08T10:35:04.828Z,6.37
2023-03-08T10:40:11.033Z,6.60
2023-03-08T10:45:22.258Z,5.87
2023-03-08T10:50:38.189Z,6.43
2023-03-08T10:55:47.822Z,4.80
2023-03-08T11:00:53.298Z,4.87
2023-03-08T11:06:13.506Z,3.80
2023-03-08T11:11:18.066Z,2.80
2023-03-08T11:16:47.846Z,3.50
2023-03-08T11:22:03.817Z,4.27
2023-03-08T11:27:30.303Z,4.60
2023-03-08T11:32:57.898Z,5.13
2023-03-08T11:38:28.974Z,4.57
2023-03-08T11:44:02.005Z,5.53
2023-03-08T11:49:14.944Z,5.33
2023-03-08T11:54:49.410Z,4.93
2023-03-08T12:00:00.970Z,4.00
2023-03-08T12:05:20.189Z,4.23
2023-03-08T12:10:24.790Z,4.67
2023-03-08T12:15:29.985Z,5.27
2023-03-08T12:20:41.523Z,5.10
2023-03-08T12:25:47.616Z,5.40
2023-03-08T12:31:01.309Z,5.13
2023-03-08T12:36:07.307Z,4.70
2023-03-08T12:41:24.011Z,4.83
2023-03-08T12:46:25.858Z,4.43
2023-03-08T12:51:32.843Z,3.63
2023-03-08T12:56:37.224Z,3.40
2023-03-08T13:01:45.346Z,4.63
2023-03-08T13:07:05.858Z,2.50
2023-03-08T13:12:40.795Z,2.43
2023-03-08T13:18:00.528Z,2.50
2023-03-08T13:23:04.846Z,1.67
2023-03-08T13:28:46.637Z,2.90
2023-03-08T13:33:51.990Z,2.83
2023-03-08T13:39:01.237Z,3.27
2023-03-08T13:44:07.578Z,2.73
2023-03-08T13:49:25.577Z,1.60
2023-03-08T13:54:35.746Z,1.50
2023-03-08T13:59:38.110Z,1.73
2023-03-08T14:04:42.977Z,2.40
2023-03-08T14:09:44.794Z,2.20
2023-03-08T14:14:52.500Z,2.20
2023-03-08T14:20:02.380Z,2.00
2023-03-08T14:25:05.209Z,1.77
2023-03-08T14:30:17.749Z,1.90
2023-03-08T14:35:25.883Z,2.97
2023-03-08T14:40:29.946Z,2.67
2023-03-08T14:45:50.533Z,3.53
2023-03-08T14:51:00.291Z,3.40
2023-03-08T14:56:10.972Z,3.50
2023-03-08T15:01:12.961Z,3.73
2023-03-08T15:06:23.094Z,4.07
2023-03-08T15:11:25.020Z,0.97
2023-03-08T15:16:29.837Z,0.73
2023-03-08T15:21:36.117Z,0.40
2023-03-08T15:26:37.770Z,0.60
2023-03-08T15:31:39.557Z,0.40
2023-03-08T15:36:45.978Z,0.50
2023-03-08T15:41:50.205Z,0.50
2023-03-08T15:46:52.990Z,0.40
2023-03-08T15:51:59.282Z,0.50
2023-03-08T15:57:00.962Z,0.30
2023-03-08T16:02:02.788Z,0.60
2023-03-08T16:07:04.541Z,0.40
2023-03-08T16:12:09.083Z,0.30
2023-03-08T16:17:16.907Z,0.38
2023-03-08T16:22:26.856Z,0.50
2023-03-08T16:27:35.446Z,0.40
2023-03-08T16:32:40.581Z,0.38
2023-03-08T16:37:44.698Z,0.30
2023-03-08T16:42:57.982Z,0.50
2023-03-08T16:48:00.461Z,0.30
2023-03-08T16:53:02.145Z,0.43
2023-03-08T16:58:06.346Z,0.38
2023-03-08T17:03:12.693Z,0.50
2023-03-08T17:08:14.425Z,0.60
2023-03-08T17:13:20.981Z,0.63
2023-03-08T17:18:26.088Z,0.50
2023-03-08T17:23:30.075Z,0.40
2023-03-08T17:28:32.444Z,0.60
2023-03-08T17:33:36.474Z,0.47
2023-03-08T17:38:42.635Z,0.57
2023-03-08T17:43:46.685Z,0.38
2023-03-08T17:48:51.571Z,0.45
2023-03-08T17:53:54.329Z,0.30
2023-03-08T17:58:57.747Z,0.70
2023-03-08T18:03:59.880Z,0.50
2023-03-08T18:09:09.617Z,0.40
2023-03-08T18:14:13.425Z,0.60
2023-03-08T18:19:15.233Z,0.50
2023-03-08T18:24:17.102Z,0.30
2023-03-08T18:29:21.822Z,0.90
2023-03-08T18:34:28.923Z,0.82
2023-03-08T18:39:30.840Z,0.75
2023-03-08T18:44:34.828Z,0.70
2023-03-08T18:49:38.867Z,0.60
2023-03-08T18:54:43.618Z,0.60
2023-03-08T18:59:45.730Z,0.60
2023-03-08T19:04:47.794Z,0.63
2023-03-08T19:09:56.971Z,0.68
2023-03-08T19:14:58.704Z,0.65
2023-03-08T19:20:00.443Z,0.57
2023-03-08T19:25:02.375Z,0.70
2023-03-08T19:30:04.437Z,0.40
2023-03-08T19:35:06.901Z,0.90
2023-03-08T19:40:09.787Z,0.82
2023-03-08T19:45:13.320Z,1.17
2023-03-08T19:50:20.109Z,0.88
2023-03-08T19:55:21.939Z,0.80
2023-03-08T20:00:28.833Z,0.80
2023-03-08T20:05:42.437Z,0.80
2023-03-08T20:10:44.146Z,0.88
2023-03-08T20:15:46.401Z,0.90
2023-03-08T20:20:48.304Z,0.70
2023-03-08T20:25:50.020Z,0.70
2023-03-08T20:30:52.489Z,1.00
2023-03-08T20:35:58.110Z,0.70
2023-03-08T20:41:00.927Z,8.47
2023-03-08T20:46:07.697Z,9.98
2023-03-08T20:51:12.707Z,9.13
2023-03-08T20:56:16.728Z,9.93
2023-03-08T21:01:30.599Z,9.93
2023-03-08T21:06:37.141Z,10.63
2023-03-08T21:11:38.961Z,10.40
2023-03-08T21:16:40.832Z,10.83
2023-03-08T21:21:45.533Z,10.80
2023-03-08T21:26:47.899Z,11.40
2023-03-08T21:31:52.685Z,11.27
2023-03-08T21:36:59.320Z,10.63
2023-03-08T21:42:01.022Z,10.13
2023-03-08T21:47:02.734Z,10.20
2023-03-08T21:52:09.555Z,9.60
2023-03-08T21:57:11.418Z,9.60
2023-03-08T22:02:13.156Z,10.33
2023-03-08T22:07:14.878Z,10.37
2023-03-08T22:12:16.646Z,10.33
2023-03-08T22:17:18.316Z,10.00
2023-03-08T22:22:22.583Z,10.40
2023-03-08T22:27:28.207Z,10.20
2023-03-08T22:32:32.164Z,10.57
2023-03-08T22:37:37.192Z,10.57
2023-03-08T22:42:41.944Z,12.27
2023-03-08T22:47:43.900Z,12.03
2023-03-08T22:52:48.566Z,12.47
2023-03-08T22:57:52.467Z,12.00
2023-03-08T23:02:57.738Z,13.77
2023-03-08T23:07:59.442Z,13.47
2023-03-08T23:13:03.746Z,13.60
2023-03-08T23:18:05.530Z,13.10
2023-03-08T23:23:11.921Z,12.77
2023-03-08T23:28:18.848Z,13.70
2023-03-08T23:33:20.766Z,12.93
2023-03-08T23:38:24.695Z,13.53
2023-03-08T23:43:26.390Z,12.77
2023-03-08T23:48:30.610Z,12.47
2023-03-08T23:53:32.356Z,13.07
2023-03-08T23:58:34.116Z,12.57
